CEFAS Endeavour — VQHF3 — position and weather

sailwx.info

Track history (hours):
 
Tides and Currents Weather Stations Pressure Air Temp Water Temp Dewpoint Dewpoint Depression Visibility Wind Speed Wind Dir Waves Ship Positions

Oceanographic research ship CEFAS Endeavour (UK)

Detailed information on ship capabilities available from University of Delaware's Ocean Information Center.

Last reported at 2017-Mar-25 20:21 UTC. Time now 2017-Mar-26 03:34 UTC.
Position N 50°09' W 006°30'.

Length 74 m; draft 8.4 m.

Type: Ship. MMSI: 235005270.

Date/timePositionNaut miles runAvg speedWind from/ knotsBaromVisibWave heightAir tempDewpointWater temp
2017-Mar-25 20:21N 50°09' W 006°30'12 3.1
2017-Mar-25 16:23N 50°01' W 006°15'0 0.3
2017-Mar-25 15:24N 50°02' W 006°15'8 9.6
2017-Mar-25 14:33N 50°06' W 006°25'4 3.9
2017-Mar-25 13:31N 50°10' W 006°28'5 2.2
2017-Mar-25 11:08N 50°05' W 006°32'2 4.2
2017-Mar-25 10:33N 50°04' W 006°36'6 4.3
2017-Mar-25 09:06N 49°58' W 006°33'2 3.7
2017-Mar-25 08:29N 49°56' W 006°35'7 3.7
2017-Mar-25 06:30N 49°49' W 006°33'8 6.4
2017-Mar-25 05:11N 49°41' W 006°39'0 0.5
2017-Mar-25 04:32N 49°41' W 006°39'83 1.9
2017-Mar-23 08:22N 48°57' W 004°51'  
2017-Mar-21 01:33N 49°54' W 004°41'7 6.6
2017-Mar-21 00:33N 49°58' W 004°49'6 6.5
2017-Mar-20 23:33N 50°02' W 004°57'7 6.6
2017-Mar-20 22:33N 50°08' W 005°02'1 0.0
2017-Mar-19 07:33N 50°08' W 005°03'0 0.0
2017-Mar-18 23:06N 50°08' W 005°03'3 4.0
2017-Mar-18 22:23N 50°05' W 005°01'13 4.0
2017-Mar-18 19:07N 50°12' W 004°44'5 8.5
2017-Mar-18 18:29N 50°14' W 004°36'4 3.9
2017-Mar-18 17:33N 50°16' W 004°31'9 9.2
2017-Mar-18 16:33N 50°09' W 004°41'7 5.1
2017-Mar-18 15:15N 50°04' W 004°48'5 7.5
2017-Mar-18 14:33N 49°59' W 004°45'59 7.0
2017-Mar-18 06:13N 49°11' W 003°52'3 4.8
2017-Mar-18 05:32N 49°11' W 003°47'4 3.5
2017-Mar-18 04:26N 49°11' W 003°41'45 6.5
2017-Mar-17 21:31N 48°52' W 002°39'20 0.8
2017-Mar-16 19:31N 48°60' W 003°07'12 3.5
2017-Mar-16 16:04N 49°08' W 002°54'12 7.7
2017-Mar-16 14:30N 49°07' W 002°36'2 1.3
2017-Mar-16 13:11N 49°09' W 002°35'812.4
2017-Mar-16 12:33N 49°13' W 002°25'9 9.0
2017-Mar-16 11:30N 49°19' W 002°13'8 8.2
2017-Mar-16 10:33N 49°21' W 002°02'3 2.5
2017-Mar-16 09:33N 49°22' W 001°58'9 7.9
2017-Mar-16 08:26N 49°30' W 002°04'18 6.2
2017-Mar-16 05:28N 49°44' W 002°21'1 1.1
2017-Mar-16 04:28N 49°45' W 002°21'7 5.0
2017-Mar-16 03:07N 49°47' W 002°11'2 2.8
2017-Mar-16 02:30N 49°47' W 002°14'1 0.7
2017-Mar-16 01:31N 49°47' W 002°15'9 9.3
2017-Mar-16 00:30N 49°56' W 002°13'8 8.4
2017-Mar-15 23:33N 50°02' W 002°06'2 2.2
2017-Mar-15 22:33N 50°04' W 002°04'1 0.8
2017-Mar-15 21:33N 50°05' W 002°03'  
Track history (hours):
 
Tides and Currents Weather Stations Pressure Air Temp Water Temp Dewpoint Dewpoint Depression Visibility Wind Speed Wind Dir Waves Ship Positions

Oceanographic research ship CEFAS Endeavour (UK)

Detailed information on ship capabilities available from University of Delaware's Ocean Information Center.

Last reported at 2017-Mar-25 20:21 UTC. Time now 2017-Mar-26 03:34 UTC.
Position N 50°09' W 006°30'.

Length 74 m; draft 8.4 m.

Type: Ship. MMSI: 235005270.

Date/timePositionNaut miles runAvg speedWind from/ knotsBaromVisibWave heightAir tempDewpointWater temp
2017-Mar-25 20:21N 50°09' W 006°30'12 3.1
2017-Mar-25 16:23N 50°01' W 006°15'0 0.3
2017-Mar-25 15:24N 50°02' W 006°15'8 9.6
2017-Mar-25 14:33N 50°06' W 006°25'4 3.9
2017-Mar-25 13:31N 50°10' W 006°28'5 2.2
2017-Mar-25 11:08N 50°05' W 006°32'2 4.2
2017-Mar-25 10:33N 50°04' W 006°36'6 4.3
2017-Mar-25 09:06N 49°58' W 006°33'2 3.7
2017-Mar-25 08:29N 49°56' W 006°35'7 3.7
2017-Mar-25 06:30N 49°49' W 006°33'8 6.4
2017-Mar-25 05:11N 49°41' W 006°39'0 0.5
2017-Mar-25 04:32N 49°41' W 006°39'83 1.9
2017-Mar-23 08:22N 48°57' W 004°51'  
2017-Mar-21 01:33N 49°54' W 004°41'7 6.6
2017-Mar-21 00:33N 49°58' W 004°49'6 6.5
2017-Mar-20 23:33N 50°02' W 004°57'7 6.6
2017-Mar-20 22:33N 50°08' W 005°02'1 0.0
2017-Mar-19 07:33N 50°08' W 005°03'0 0.0
2017-Mar-18 23:06N 50°08' W 005°03'3 4.0
2017-Mar-18 22:23N 50°05' W 005°01'13 4.0
2017-Mar-18 19:07N 50°12' W 004°44'5 8.5
2017-Mar-18 18:29N 50°14' W 004°36'4 3.9
2017-Mar-18 17:33N 50°16' W 004°31'9 9.2
2017-Mar-18 16:33N 50°09' W 004°41'7 5.1
2017-Mar-18 15:15N 50°04' W 004°48'5 7.5
2017-Mar-18 14:33N 49°59' W 004°45'59 7.0
2017-Mar-18 06:13N 49°11' W 003°52'3 4.8
2017-Mar-18 05:32N 49°11' W 003°47'4 3.5
2017-Mar-18 04:26N 49°11' W 003°41'45 6.5
2017-Mar-17 21:31N 48°52' W 002°39'20 0.8
2017-Mar-16 19:31N 48°60' W 003°07'12 3.5
2017-Mar-16 16:04N 49°08' W 002°54'12 7.7
2017-Mar-16 14:30N 49°07' W 002°36'2 1.3
2017-Mar-16 13:11N 49°09' W 002°35'812.4
2017-Mar-16 12:33N 49°13' W 002°25'9 9.0
2017-Mar-16 11:30N 49°19' W 002°13'8 8.2
2017-Mar-16 10:33N 49°21' W 002°02'3 2.5
2017-Mar-16 09:33N 49°22' W 001°58'9 7.9
2017-Mar-16 08:26N 49°30' W 002°04'18 6.2
2017-Mar-16 05:28N 49°44' W 002°21'1 1.1
2017-Mar-16 04:28N 49°45' W 002°21'7 5.0
2017-Mar-16 03:07N 49°47' W 002°11'2 2.8
2017-Mar-16 02:30N 49°47' W 002°14'1 0.7
2017-Mar-16 01:31N 49°47' W 002°15'9 9.3
2017-Mar-16 00:30N 49°56' W 002°13'8 8.4
2017-Mar-15 23:33N 50°02' W 002°06'2 2.2
2017-Mar-15 22:33N 50°04' W 002°04'1 0.8
2017-Mar-15 21:33N 50°05' W 002°03'  

Dump ship's entire track history